sensor_id;sensor_type;location;lat;lon;timestamp;P1;durP1;ratioP1;P2;durP2;ratioP2
75038;SDS011;63609;49.992;14.512;2023-08-01T00:03:31;5.78;;;3.45;;
75038;SDS011;63609;49.992;14.512;2023-08-01T00:05:58;6.72;;;3.08;;
75038;SDS011;63609;49.992;14.512;2023-08-01T00:08:26;7.65;;;2.75;;
75038;SDS011;63609;49.992;14.512;2023-08-01T00:10:53;6.03;;;3.08;;
75038;SDS011;63609;49.992;14.512;2023-08-01T00:13:24;8.05;;;2.80;;
75038;SDS011;63609;49.992;14.512;2023-08-01T00:15:51;5.18;;;2.95;;
75038;SDS011;63609;49.992;14.512;2023-08-01T00:18:33;6.22;;;3.15;;
75038;SDS011;63609;49.992;14.512;2023-08-01T00:21:01;5.40;;;2.60;;
75038;SDS011;63609;49.992;14.512;2023-08-01T00:23:29;7.32;;;2.90;;
75038;SDS011;63609;49.992;14.512;2023-08-01T00:25:56;7.47;;;3.45;;
75038;SDS011;63609;49.992;14.512;2023-08-01T00:28:24;6.32;;;2.80;;
75038;SDS011;63609;49.992;14.512;2023-08-01T00:31:03;5.05;;;2.70;;
75038;SDS011;63609;49.992;14.512;2023-08-01T00:33:30;6.38;;;2.72;;
75038;SDS011;63609;49.992;14.512;2023-08-01T00:35:57;5.70;;;2.30;;
75038;SDS011;63609;49.992;14.512;2023-08-01T00:38:24;6.18;;;3.03;;
75038;SDS011;63609;49.992;14.512;2023-08-01T00:40:51;5.80;;;3.08;;
75038;SDS011;63609;49.992;14.512;2023-08-01T00:43:18;4.32;;;2.80;;
75038;SDS011;63609;49.992;14.512;2023-08-01T00:45:46;6.78;;;3.15;;
75038;SDS011;63609;49.992;14.512;2023-08-01T00:48:13;7.28;;;3.08;;
75038;SDS011;63609;49.992;14.512;2023-08-01T00:50:41;5.35;;;3.20;;
75038;SDS011;63609;49.992;14.512;2023-08-01T00:53:08;7.00;;;3.25;;
75038;SDS011;63609;49.992;14.512;2023-08-01T00:55:36;5.07;;;2.47;;
75038;SDS011;63609;49.992;14.512;2023-08-01T00:58:04;5.82;;;2.78;;
75038;SDS011;63609;49.992;14.512;2023-08-01T01:00:31;8.45;;;3.45;;
75038;SDS011;63609;49.992;14.512;2023-08-01T01:03:03;7.30;;;3.08;;
75038;SDS011;63609;49.992;14.512;2023-08-01T01:05:31;5.03;;;2.60;;
75038;SDS011;63609;49.992;14.512;2023-08-01T01:08:05;5.20;;;2.65;;
75038;SDS011;63609;49.992;14.512;2023-08-01T01:10:33;5.18;;;2.55;;
75038;SDS011;63609;49.992;14.512;2023-08-01T01:13:01;5.45;;;2.80;;
75038;SDS011;63609;49.992;14.512;2023-08-01T01:15:29;7.10;;;2.55;;
75038;SDS011;63609;49.992;14.512;2023-08-01T01:17:55;5.40;;;2.80;;
75038;SDS011;63609;49.992;14.512;2023-08-01T01:20:23;4.78;;;2.58;;
75038;SDS011;63609;49.992;14.512;2023-08-01T01:22:53;4.05;;;2.00;;
75038;SDS011;63609;49.992;14.512;2023-08-01T01:25:23;4.80;;;2.50;;
75038;SDS011;63609;49.992;14.512;2023-08-01T01:27:51;6.28;;;2.58;;
75038;SDS011;63609;49.992;14.512;2023-08-01T01:30:21;5.38;;;2.80;;
75038;SDS011;63609;49.992;14.512;2023-08-01T01:32:52;4.93;;;1.98;;
75038;SDS011;63609;49.992;14.512;2023-08-01T01:35:19;4.63;;;2.55;;
75038;SDS011;63609;49.992;14.512;2023-08-01T01:37:47;6.93;;;2.33;;
75038;SDS011;63609;49.992;14.512;2023-08-01T01:40:15;5.85;;;2.58;;
75038;SDS011;63609;49.992;14.512;2023-08-01T01:42:42;5.18;;;2.33;;
75038;SDS011;63609;49.992;14.512;2023-08-01T01:45:08;5.38;;;2.45;;
75038;SDS011;63609;49.992;14.512;2023-08-01T01:47:36;5.60;;;2.17;;
75038;SDS011;63609;49.992;14.512;2023-08-01T01:50:03;8.00;;;3.58;;
75038;SDS011;63609;49.992;14.512;2023-08-01T01:52:32;4.60;;;2.50;;
75038;SDS011;63609;49.992;14.512;2023-08-01T01:54:59;5.43;;;2.33;;
75038;SDS011;63609;49.992;14.512;2023-08-01T01:57:33;3.70;;;2.08;;
75038;SDS011;63609;49.992;14.512;2023-08-01T02:00:08;5.32;;;2.30;;
75038;SDS011;63609;49.992;14.512;2023-08-01T02:02:38;4.80;;;2.30;;
75038;SDS011;63609;49.992;14.512;2023-08-01T02:05:06;7.18;;;2.58;;
75038;SDS011;63609;49.992;14.512;2023-08-01T02:07:36;4.45;;;2.33;;
75038;SDS011;63609;49.992;14.512;2023-08-01T02:10:09;4.75;;;1.92;;
75038;SDS011;63609;49.992;14.512;2023-08-01T02:12:36;6.22;;;2.60;;
75038;SDS011;63609;49.992;14.512;2023-08-01T02:15:03;5.47;;;2.72;;
75038;SDS011;63609;49.992;14.512;2023-08-01T02:17:31;4.63;;;2.70;;
75038;SDS011;63609;49.992;14.512;2023-08-01T02:19:58;4.68;;;2.55;;
75038;SDS011;63609;49.992;14.512;2023-08-01T02:22:25;6.68;;;2.58;;
75038;SDS011;63609;49.992;14.512;2023-08-01T02:27:45;3.67;;;2.00;;
75038;SDS011;63609;49.992;14.512;2023-08-01T02:30:12;5.45;;;2.40;;
75038;SDS011;63609;49.992;14.512;2023-08-01T02:32:39;6.07;;;2.50;;
75038;SDS011;63609;49.992;14.512;2023-08-01T02:35:07;6.93;;;2.78;;
75038;SDS011;63609;49.992;14.512;2023-08-01T02:37:34;3.65;;;2.38;;
75038;SDS011;63609;49.992;14.512;2023-08-01T02:40:02;7.35;;;2.70;;
75038;SDS011;63609;49.992;14.512;2023-08-01T02:45:01;5.05;;;2.75;;
75038;SDS011;63609;49.992;14.512;2023-08-01T02:47:28;7.18;;;3.05;;
75038;SDS011;63609;49.992;14.512;2023-08-01T02:49:55;4.05;;;2.28;;
75038;SDS011;63609;49.992;14.512;2023-08-01T02:52:22;6.50;;;2.47;;
75038;SDS011;63609;49.992;14.512;2023-08-01T02:54:49;6.30;;;2.50;;
75038;SDS011;63609;49.992;14.512;2023-08-01T02:57:16;7.10;;;2.58;;
75038;SDS011;63609;49.992;14.512;2023-08-01T02:59:43;6.75;;;2.60;;
75038;SDS011;63609;49.992;14.512;2023-08-01T03:07:04;6.75;;;2.53;;
75038;SDS011;63609;49.992;14.512;2023-08-01T03:09:32;4.30;;;2.30;;
75038;SDS011;63609;49.992;14.512;2023-08-01T03:11:59;4.95;;;2.50;;
75038;SDS011;63609;49.992;14.512;2023-08-01T03:14:27;4.93;;;2.45;;
75038;SDS011;63609;49.992;14.512;2023-08-01T03:16:53;3.70;;;2.08;;
75038;SDS011;63609;49.992;14.512;2023-08-01T03:19:21;3.47;;;2.00;;
75038;SDS011;63609;49.992;14.512;2023-08-01T03:21:48;5.25;;;2.78;;
75038;SDS011;63609;49.992;14.512;2023-08-01T03:24:15;4.43;;;2.33;;
75038;SDS011;63609;49.992;14.512;2023-08-01T03:26:42;4.68;;;2.70;;
75038;SDS011;63609;49.992;14.512;2023-08-01T03:29:11;6.57;;;2.78;;
75038;SDS011;63609;49.992;14.512;2023-08-01T03:31:37;5.38;;;2.80;;
75038;SDS011;63609;49.992;14.512;2023-08-01T03:34:05;5.05;;;2.58;;
75038;SDS011;63609;49.992;14.512;2023-08-01T03:36:37;8.13;;;2.97;;
75038;SDS011;63609;49.992;14.512;2023-08-01T03:39:04;4.57;;;2.58;;
75038;SDS011;63609;49.992;14.512;2023-08-01T03:44:04;8.20;;;2.90;;
75038;SDS011;63609;49.992;14.512;2023-08-01T03:46:31;5.35;;;2.80;;
75038;SDS011;63609;49.992;14.512;2023-08-01T03:48:58;4.55;;;2.70;;
75038;SDS011;63609;49.992;14.512;2023-08-01T03:51:25;6.70;;;2.90;;
75038;SDS011;63609;49.992;14.512;2023-08-01T03:53:52;4.15;;;2.30;;
75038;SDS011;63609;49.992;14.512;2023-08-01T03:56:37;5.13;;;2.50;;
75038;SDS011;63609;49.992;14.512;2023-08-01T03:59:06;6.57;;;2.60;;
75038;SDS011;63609;49.992;14.512;2023-08-01T04:01:35;5.70;;;2.83;;
75038;SDS011;63609;49.992;14.512;2023-08-01T04:04:02;5.70;;;3.00;;
75038;SDS011;63609;49.992;14.512;2023-08-01T04:06:29;4.30;;;2.50;;
75038;SDS011;63609;49.992;14.512;2023-08-01T04:08:56;7.70;;;2.95;;
75038;SDS011;63609;49.992;14.512;2023-08-01T04:11:23;7.22;;;2.85;;
75038;SDS011;63609;49.992;14.512;2023-08-01T04:13:50;7.65;;;2.35;;
75038;SDS011;63609;49.992;14.512;2023-08-01T04:16:20;3.17;;;1.85;;
75038;SDS011;63609;49.992;14.512;2023-08-01T04:21:18;4.50;;;2.67;;
75038;SDS011;63609;49.992;14.512;2023-08-01T04:23:46;3.92;;;2.40;;
75038;SDS011;63609;49.992;14.512;2023-08-01T04:26:13;4.85;;;1.88;;
75038;SDS011;63609;49.992;14.512;2023-08-01T04:28:41;4.78;;;2.30;;
75038;SDS011;63609;49.992;14.512;2023-08-01T04:31:13;4.00;;;2.20;;
75038;SDS011;63609;49.992;14.512;2023-08-01T04:35:15;5.47;;;2.00;;
75038;SDS011;63609;49.992;14.512;2023-08-01T04:37:42;6.93;;;2.20;;
75038;SDS011;63609;49.992;14.512;2023-08-01T04:40:09;5.03;;;2.38;;
75038;SDS011;63609;49.992;14.512;2023-08-01T04:42:41;5.63;;;2.75;;
75038;SDS011;63609;49.992;14.512;2023-08-01T04:45:08;6.72;;;3.20;;
75038;SDS011;63609;49.992;14.512;2023-08-01T04:47:36;6.43;;;3.05;;
75038;SDS011;63609;49.992;14.512;2023-08-01T04:50:03;6.07;;;3.30;;
75038;SDS011;63609;49.992;14.512;2023-08-01T04:52:31;8.98;;;3.10;;
75038;SDS011;63609;49.992;14.512;2023-08-01T04:54:58;7.13;;;2.40;;
75038;SDS011;63609;49.992;14.512;2023-08-01T04:57:25;6.72;;;3.35;;
75038;SDS011;63609;49.992;14.512;2023-08-01T04:59:52;7.57;;;2.80;;
75038;SDS011;63609;49.992;14.512;2023-08-01T05:02:18;6.20;;;2.65;;
75038;SDS011;63609;49.992;14.512;2023-08-01T05:04:46;6.25;;;2.78;;
75038;SDS011;63609;49.992;14.512;2023-08-01T05:07:13;4.40;;;2.65;;
75038;SDS011;63609;49.992;14.512;2023-08-01T05:09:41;5.95;;;2.80;;
75038;SDS011;63609;49.992;14.512;2023-08-01T05:12:08;3.90;;;2.28;;
75038;SDS011;63609;49.992;14.512;2023-08-01T05:14:36;4.47;;;2.28;;
75038;SDS011;63609;49.992;14.512;2023-08-01T05:17:03;5.13;;;2.45;;
75038;SDS011;63609;49.992;14.512;2023-08-01T05:19:32;5.05;;;2.13;;
75038;SDS011;63609;49.992;14.512;2023-08-01T05:22:01;8.55;;;2.30;;
75038;SDS011;63609;49.992;14.512;2023-08-01T05:24:32;4.57;;;2.15;;
75038;SDS011;63609;49.992;14.512;2023-08-01T05:27:00;4.90;;;2.63;;
75038;SDS011;63609;49.992;14.512;2023-08-01T05:29:27;8.63;;;2.85;;
75038;SDS011;63609;49.992;14.512;2023-08-01T05:31:54;6.32;;;2.63;;
75038;SDS011;63609;49.992;14.512;2023-08-01T05:34:22;5.68;;;2.40;;
75038;SDS011;63609;49.992;14.512;2023-08-01T05:36:49;3.72;;;2.22;;
75038;SDS011;63609;49.992;14.512;2023-08-01T05:39:17;3.85;;;1.85;;
75038;SDS011;63609;49.992;14.512;2023-08-01T05:41:44;5.45;;;2.78;;
75038;SDS011;63609;49.992;14.512;2023-08-01T05:44:10;7.85;;;2.55;;
75038;SDS011;63609;49.992;14.512;2023-08-01T05:46:37;4.82;;;2.15;;
75038;SDS011;63609;49.992;14.512;2023-08-01T05:49:06;6.32;;;2.55;;
75038;SDS011;63609;49.992;14.512;2023-08-01T05:51:33;5.07;;;2.38;;
75038;SDS011;63609;49.992;14.512;2023-08-01T05:54:00;6.15;;;2.50;;
75038;SDS011;63609;49.992;14.512;2023-08-01T05:56:28;4.22;;;2.28;;
75038;SDS011;63609;49.992;14.512;2023-08-01T05:58:56;3.63;;;2.15;;
75038;SDS011;63609;49.992;14.512;2023-08-01T06:01:23;6.68;;;2.83;;
75038;SDS011;63609;49.992;14.512;2023-08-01T06:03:51;13.52;;;3.13;;
75038;SDS011;63609;49.992;14.512;2023-08-01T06:06:18;4.95;;;2.78;;
75038;SDS011;63609;49.992;14.512;2023-08-01T06:08:45;4.18;;;2.30;;
75038;SDS011;63609;49.992;14.512;2023-08-01T06:11:12;8.25;;;2.53;;
75038;SDS011;63609;49.992;14.512;2023-08-01T06:13:39;5.85;;;2.30;;
75038;SDS011;63609;49.992;14.512;2023-08-01T06:16:07;5.70;;;2.40;;
75038;SDS011;63609;49.992;14.512;2023-08-01T06:18:35;3.50;;;2.13;;
75038;SDS011;63609;49.992;14.512;2023-08-01T06:21:05;4.43;;;2.75;;
75038;SDS011;63609;49.992;14.512;2023-08-01T06:23:31;4.72;;;2.10;;
75038;SDS011;63609;49.992;14.512;2023-08-01T06:25:59;4.13;;;1.92;;
75038;SDS011;63609;49.992;14.512;2023-08-01T06:28:27;5.60;;;2.25;;
75038;SDS011;63609;49.992;14.512;2023-08-01T06:30:54;4.25;;;2.05;;
75038;SDS011;63609;49.992;14.512;2023-08-01T06:33:21;4.57;;;1.85;;
75038;SDS011;63609;49.992;14.512;2023-08-01T06:35:49;3.30;;;1.77;;
75038;SDS011;63609;49.992;14.512;2023-08-01T06:41:11;5.30;;;2.30;;
75038;SDS011;63609;49.992;14.512;2023-08-01T06:43:38;5.93;;;2.33;;
75038;SDS011;63609;49.992;14.512;2023-08-01T06:46:05;4.32;;;1.95;;
75038;SDS011;63609;49.992;14.512;2023-08-01T06:48:32;6.22;;;2.15;;
75038;SDS011;63609;49.992;14.512;2023-08-01T06:51:02;4.43;;;2.38;;
75038;SDS011;63609;49.992;14.512;2023-08-01T06:53:29;4.78;;;2.00;;
75038;SDS011;63609;49.992;14.512;2023-08-01T06:55:57;6.68;;;2.78;;
75038;SDS011;63609;49.992;14.512;2023-08-01T06:58:24;3.33;;;2.13;;
75038;SDS011;63609;49.992;14.512;2023-08-01T07:00:51;5.20;;;2.25;;
75038;SDS011;63609;49.992;14.512;2023-08-01T07:03:18;3.90;;;2.22;;
75038;SDS011;63609;49.992;14.512;2023-08-01T07:05:46;6.53;;;2.03;;
75038;SDS011;63609;49.992;14.512;2023-08-01T07:08:13;4.78;;;2.50;;
75038;SDS011;63609;49.992;14.512;2023-08-01T07:10:40;5.07;;;2.10;;
75038;SDS011;63609;49.992;14.512;2023-08-01T07:13:08;4.32;;;2.05;;
75038;SDS011;63609;49.992;14.512;2023-08-01T07:15:36;6.70;;;2.80;;
75038;SDS011;63609;49.992;14.512;2023-08-01T07:18:02;6.07;;;2.85;;
75038;SDS011;63609;49.992;14.512;2023-08-01T07:20:30;6.55;;;2.63;;
75038;SDS011;63609;49.992;14.512;2023-08-01T07:22:57;5.68;;;2.70;;
75038;SDS011;63609;49.992;14.512;2023-08-01T07:25:24;4.15;;;2.38;;
75038;SDS011;63609;49.992;14.512;2023-08-01T07:27:52;5.47;;;2.20;;
75038;SDS011;63609;49.992;14.512;2023-08-01T07:30:21;3.33;;;2.00;;
75038;SDS011;63609;49.992;14.512;2023-08-01T07:32:49;5.13;;;2.42;;
75038;SDS011;63609;49.992;14.512;2023-08-01T07:35:16;4.28;;;2.65;;
75038;SDS011;63609;49.992;14.512;2023-08-01T07:37:44;4.32;;;2.38;;
75038;SDS011;63609;49.992;14.512;2023-08-01T07:40:11;4.88;;;2.50;;
75038;SDS011;63609;49.992;14.512;2023-08-01T07:42:38;6.03;;;2.70;;
75038;SDS011;63609;49.992;14.512;2023-08-01T07:45:05;5.70;;;2.63;;
75038;SDS011;63609;49.992;14.512;2023-08-01T07:47:33;4.78;;;2.40;;
75038;SDS011;63609;49.992;14.512;2023-08-01T07:50:02;5.65;;;3.22;;
75038;SDS011;63609;49.992;14.512;2023-08-01T07:52:29;6.20;;;2.55;;
75038;SDS011;63609;49.992;14.512;2023-08-01T07:54:56;3.97;;;2.30;;
75038;SDS011;63609;49.992;14.512;2023-08-01T07:57:25;4.88;;;2.20;;
75038;SDS011;63609;49.992;14.512;2023-08-01T07:59:54;5.00;;;2.78;;
75038;SDS011;63609;49.992;14.512;2023-08-01T08:02:26;8.35;;;3.15;;
75038;SDS011;63609;49.992;14.512;2023-08-01T08:04:53;6.78;;;2.72;;
75038;SDS011;63609;49.992;14.512;2023-08-01T08:10:13;3.85;;;2.30;;
75038;SDS011;63609;49.992;14.512;2023-08-01T08:12:42;3.80;;;2.05;;
75038;SDS011;63609;49.992;14.512;2023-08-01T08:15:09;5.53;;;2.42;;
75038;SDS011;63609;49.992;14.512;2023-08-01T08:17:36;4.35;;;2.40;;
75038;SDS011;63609;49.992;14.512;2023-08-01T08:20:03;5.07;;;2.67;;
75038;SDS011;63609;49.992;14.512;2023-08-01T08:22:30;4.95;;;1.92;;
75038;SDS011;63609;49.992;14.512;2023-08-01T08:24:57;3.53;;;2.20;;
75038;SDS011;63609;49.992;14.512;2023-08-01T08:27:27;4.82;;;1.98;;
75038;SDS011;63609;49.992;14.512;2023-08-01T08:29:54;4.38;;;1.88;;
75038;SDS011;63609;49.992;14.512;2023-08-01T08:32:22;6.57;;;2.58;;
75038;SDS011;63609;49.992;14.512;2023-08-01T08:34:48;4.28;;;2.25;;
75038;SDS011;63609;49.992;14.512;2023-08-01T08:37:15;4.68;;;2.35;;
75038;SDS011;63609;49.992;14.512;2023-08-01T08:39:43;5.55;;;3.20;;
75038;SDS011;63609;49.992;14.512;2023-08-01T08:42:10;5.63;;;2.60;;
75038;SDS011;63609;49.992;14.512;2023-08-01T08:44:42;7.28;;;2.40;;
75038;SDS011;63609;49.992;14.512;2023-08-01T08:49:39;5.32;;;2.17;;
75038;SDS011;63609;49.992;14.512;2023-08-01T08:52:09;4.72;;;2.10;;
75038;SDS011;63609;49.992;14.512;2023-08-01T08:54:38;5.45;;;2.53;;
75038;SDS011;63609;49.992;14.512;2023-08-01T08:57:06;6.05;;;2.20;;
75038;SDS011;63609;49.992;14.512;2023-08-01T08:59:33;6.20;;;2.40;;
75038;SDS011;63609;49.992;14.512;2023-08-01T09:02:02;4.25;;;2.30;;
75038;SDS011;63609;49.992;14.512;2023-08-01T09:04:33;3.08;;;1.83;;
75038;SDS011;63609;49.992;14.512;2023-08-01T09:07:10;4.15;;;2.03;;
75038;SDS011;63609;49.992;14.512;2023-08-01T09:09:41;5.57;;;2.17;;
75038;SDS011;63609;49.992;14.512;2023-08-01T09:12:09;5.38;;;2.33;;
75038;SDS011;63609;49.992;14.512;2023-08-01T09:14:36;3.40;;;1.80;;
75038;SDS011;63609;49.992;14.512;2023-08-01T09:17:07;6.80;;;2.30;;
75038;SDS011;63609;49.992;14.512;2023-08-01T09:19:38;3.55;;;1.88;;
75038;SDS011;63609;49.992;14.512;2023-08-01T09:22:09;5.93;;;2.05;;
75038;SDS011;63609;49.992;14.512;2023-08-01T09:24:50;3.08;;;1.80;;
75038;SDS011;63609;49.992;14.512;2023-08-01T09:27:32;3.75;;;2.10;;
75038;SDS011;63609;49.992;14.512;2023-08-01T09:30:21;3.40;;;1.63;;
75038;SDS011;63609;49.992;14.512;2023-08-01T09:32:56;4.00;;;1.85;;
75038;SDS011;63609;49.992;14.512;2023-08-01T09:35:27;4.50;;;1.90;;
75038;SDS011;63609;49.992;14.512;2023-08-01T09:38:04;4.28;;;2.10;;
75038;SDS011;63609;49.992;14.512;2023-08-01T09:40:38;3.90;;;1.50;;
75038;SDS011;63609;49.992;14.512;2023-08-01T09:43:07;4.70;;;2.10;;
75038;SDS011;63609;49.992;14.512;2023-08-01T09:45:34;4.50;;;1.80;;
75038;SDS011;63609;49.992;14.512;2023-08-01T09:48:02;3.80;;;1.73;;
75038;SDS011;63609;49.992;14.512;2023-08-01T09:50:29;3.95;;;1.90;;
75038;SDS011;63609;49.992;14.512;2023-08-01T09:53:06;4.00;;;2.10;;
75038;SDS011;63609;49.992;14.512;2023-08-01T09:55:35;3.70;;;1.98;;
75038;SDS011;63609;49.992;14.512;2023-08-01T09:58:03;3.67;;;1.77;;
75038;SDS011;63609;49.992;14.512;2023-08-01T10:00:33;3.55;;;1.83;;
75038;SDS011;63609;49.992;14.512;2023-08-01T10:03:00;3.65;;;1.77;;
75038;SDS011;63609;49.992;14.512;2023-08-01T10:05:30;6.25;;;2.13;;
75038;SDS011;63609;49.992;14.512;2023-08-01T10:07:59;3.95;;;1.80;;
75038;SDS011;63609;49.992;14.512;2023-08-01T10:10:27;4.00;;;1.70;;
75038;SDS011;63609;49.992;14.512;2023-08-01T10:12:58;4.85;;;2.35;;
75038;SDS011;63609;49.992;14.512;2023-08-01T10:15:28;3.67;;;1.75;;
75038;SDS011;63609;49.992;14.512;2023-08-01T10:18:01;4.05;;;1.77;;
75038;SDS011;63609;49.992;14.512;2023-08-01T10:20:30;3.67;;;1.73;;
75038;SDS011;63609;49.992;14.512;2023-08-01T10:22:58;3.50;;;1.70;;
75038;SDS011;63609;49.992;14.512;2023-08-01T10:25:27;4.00;;;2.00;;
75038;SDS011;63609;49.992;14.512;2023-08-01T10:28:03;2.67;;;1.38;;
75038;SDS011;63609;49.992;14.512;2023-08-01T10:30:37;3.33;;;1.50;;
75038;SDS011;63609;49.992;14.512;2023-08-01T10:33:04;3.83;;;1.90;;
75038;SDS011;63609;49.992;14.512;2023-08-01T10:35:38;3.55;;;1.83;;
75038;SDS011;63609;49.992;14.512;2023-08-01T10:38:09;3.33;;;1.67;;
75038;SDS011;63609;49.992;14.512;2023-08-01T10:40:38;3.83;;;1.88;;
75038;SDS011;63609;49.992;14.512;2023-08-01T10:43:19;4.15;;;1.80;;
75038;SDS011;63609;49.992;14.512;2023-08-01T10:45:48;3.20;;;1.60;;
75038;SDS011;63609;49.992;14.512;2023-08-01T10:51:20;3.55;;;1.70;;
75038;SDS011;63609;49.992;14.512;2023-08-01T10:53:47;3.33;;;1.42;;
75038;SDS011;63609;49.992;14.512;2023-08-01T10:56:18;2.53;;;1.58;;
75038;SDS011;63609;49.992;14.512;2023-08-01T10:58:46;3.38;;;1.70;;
75038;SDS011;63609;49.992;14.512;2023-08-01T11:01:14;3.70;;;1.30;;
75038;SDS011;63609;49.992;14.512;2023-08-01T11:03:41;3.10;;;1.50;;
75038;SDS011;63609;49.992;14.512;2023-08-01T11:06:09;2.95;;;1.65;;
75038;SDS011;63609;49.992;14.512;2023-08-01T11:08:36;3.60;;;1.58;;
75038;SDS011;63609;49.992;14.512;2023-08-01T11:11:05;3.25;;;1.45;;
75038;SDS011;63609;49.992;14.512;2023-08-01T11:13:49;2.88;;;1.48;;
75038;SDS011;63609;49.992;14.512;2023-08-01T11:16:18;3.90;;;1.65;;
75038;SDS011;63609;49.992;14.512;2023-08-01T11:18:46;2.95;;;1.38;;
75038;SDS011;63609;49.992;14.512;2023-08-01T11:21:12;3.83;;;1.33;;
75038;SDS011;63609;49.992;14.512;2023-08-01T11:23:51;3.70;;;1.67;;
75038;SDS011;63609;49.992;14.512;2023-08-01T11:26:18;3.22;;;1.48;;
75038;SDS011;63609;49.992;14.512;2023-08-01T11:28:46;3.50;;;1.40;;
75038;SDS011;63609;49.992;14.512;2023-08-01T11:31:14;3.30;;;1.63;;
75038;SDS011;63609;49.992;14.512;2023-08-01T11:33:41;3.25;;;1.55;;
75038;SDS011;63609;49.992;14.512;2023-08-01T11:36:11;5.47;;;1.60;;
75038;SDS011;63609;49.992;14.512;2023-08-01T11:38:38;3.85;;;1.35;;
75038;SDS011;63609;49.992;14.512;2023-08-01T11:41:05;3.08;;;1.42;;
75038;SDS011;63609;49.992;14.512;2023-08-01T11:43:42;3.90;;;1.60;;
75038;SDS011;63609;49.992;14.512;2023-08-01T11:46:10;3.08;;;1.27;;
75038;SDS011;63609;49.992;14.512;2023-08-01T11:48:39;4.13;;;1.30;;
75038;SDS011;63609;49.992;14.512;2023-08-01T11:51:13;5.25;;;1.27;;
75038;SDS011;63609;49.992;14.512;2023-08-01T11:53:45;3.17;;;1.60;;
75038;SDS011;63609;49.992;14.512;2023-08-01T11:56:22;2.13;;;1.27;;
75038;SDS011;63609;49.992;14.512;2023-08-01T11:58:50;3.30;;;1.20;;
75038;SDS011;63609;49.992;14.512;2023-08-01T12:01:17;3.95;;;1.67;;
75038;SDS011;63609;49.992;14.512;2023-08-01T12:03:54;2.80;;;1.17;;
75038;SDS011;63609;49.992;14.512;2023-08-01T12:06:23;4.25;;;1.23;;
75038;SDS011;63609;49.992;14.512;2023-08-01T12:08:51;4.75;;;1.40;;
75038;SDS011;63609;49.992;14.512;2023-08-01T12:14:10;2.35;;;1.13;;
75038;SDS011;63609;49.992;14.512;2023-08-01T12:16:40;4.05;;;1.20;;
75038;SDS011;63609;49.992;14.512;2023-08-01T12:19:17;5.93;;;1.17;;
75038;SDS011;63609;49.992;14.512;2023-08-01T12:21:47;3.10;;;0.93;;
75038;SDS011;63609;49.992;14.512;2023-08-01T12:24:15;2.78;;;1.15;;
75038;SDS011;63609;49.992;14.512;2023-08-01T12:26:42;3.17;;;1.38;;
75038;SDS011;63609;49.992;14.512;2023-08-01T12:29:10;2.25;;;1.10;;
75038;SDS011;63609;49.992;14.512;2023-08-01T12:31:37;2.30;;;1.33;;
75038;SDS011;63609;49.992;14.512;2023-08-01T12:34:04;2.60;;;1.40;;
75038;SDS011;63609;49.992;14.512;2023-08-01T12:36:31;3.60;;;1.38;;
75038;SDS011;63609;49.992;14.512;2023-08-01T12:38:58;2.15;;;0.88;;
75038;SDS011;63609;49.992;14.512;2023-08-01T12:41:25;2.40;;;1.00;;
75038;SDS011;63609;49.992;14.512;2023-08-01T12:43:54;3.25;;;1.15;;
75038;SDS011;63609;49.992;14.512;2023-08-01T12:46:26;3.30;;;1.30;;
75038;SDS011;63609;49.992;14.512;2023-08-01T12:48:53;3.00;;;1.20;;
75038;SDS011;63609;49.992;14.512;2023-08-01T12:51:20;3.45;;;1.52;;
75038;SDS011;63609;49.992;14.512;2023-08-01T12:53:47;2.67;;;1.20;;
75038;SDS011;63609;49.992;14.512;2023-08-01T12:56:15;4.50;;;2.03;;
75038;SDS011;63609;49.992;14.512;2023-08-01T12:58:42;3.28;;;1.35;;
75038;SDS011;63609;49.992;14.512;2023-08-01T13:01:14;2.50;;;1.25;;
75038;SDS011;63609;49.992;14.512;2023-08-01T13:03:42;3.60;;;1.58;;
75038;SDS011;63609;49.992;14.512;2023-08-01T13:06:12;4.50;;;1.55;;
75038;SDS011;63609;49.992;14.512;2023-08-01T13:08:40;4.20;;;1.65;;
75038;SDS011;63609;49.992;14.512;2023-08-01T13:11:11;2.33;;;1.30;;
75038;SDS011;63609;49.992;14.512;2023-08-01T13:13:40;2.85;;;1.52;;
75038;SDS011;63609;49.992;14.512;2023-08-01T13:16:08;3.10;;;1.33;;
75038;SDS011;63609;49.992;14.512;2023-08-01T13:18:35;2.45;;;1.17;;
75038;SDS011;63609;49.992;14.512;2023-08-01T13:21:10;2.47;;;1.27;;
75038;SDS011;63609;49.992;14.512;2023-08-01T13:23:38;2.20;;;1.02;;
75038;SDS011;63609;49.992;14.512;2023-08-01T13:26:04;2.88;;;1.08;;
75038;SDS011;63609;49.992;14.512;2023-08-01T13:28:32;2.72;;;1.20;;
75038;SDS011;63609;49.992;14.512;2023-08-01T13:31:02;2.42;;;1.45;;
75038;SDS011;63609;49.992;14.512;2023-08-01T13:33:37;3.15;;;1.38;;
75038;SDS011;63609;49.992;14.512;2023-08-01T13:36:04;2.55;;;1.23;;
75038;SDS011;63609;49.992;14.512;2023-08-01T13:38:31;1.40;;;0.77;;
75038;SDS011;63609;49.992;14.512;2023-08-01T13:41:03;2.88;;;1.40;;
75038;SDS011;63609;49.992;14.512;2023-08-01T13:43:32;6.55;;;1.42;;
75038;SDS011;63609;49.992;14.512;2023-08-01T13:45:59;4.80;;;1.40;;
75038;SDS011;63609;49.992;14.512;2023-08-01T13:48:36;3.17;;;1.45;;
75038;SDS011;63609;49.992;14.512;2023-08-01T13:51:05;4.35;;;1.40;;
75038;SDS011;63609;49.992;14.512;2023-08-01T13:53:33;6.60;;;2.83;;
75038;SDS011;63609;49.992;14.512;2023-08-01T13:56:01;3.67;;;1.52;;
75038;SDS011;63609;49.992;14.512;2023-08-01T13:58:29;3.40;;;1.35;;
75038;SDS011;63609;49.992;14.512;2023-08-01T14:01:01;3.53;;;1.73;;
75038;SDS011;63609;49.992;14.512;2023-08-01T14:03:37;4.57;;;1.30;;
75038;SDS011;63609;49.992;14.512;2023-08-01T14:06:06;3.85;;;2.10;;
75038;SDS011;63609;49.992;14.512;2023-08-01T14:08:34;3.38;;;1.60;;
75038;SDS011;63609;49.992;14.512;2023-08-01T14:11:02;2.63;;;1.23;;
75038;SDS011;63609;49.992;14.512;2023-08-01T14:13:36;3.85;;;1.55;;
75038;SDS011;63609;49.992;14.512;2023-08-01T14:16:03;3.50;;;1.70;;
75038;SDS011;63609;49.992;14.512;2023-08-01T14:18:30;4.70;;;2.10;;
75038;SDS011;63609;49.992;14.512;2023-08-01T14:20:57;3.92;;;1.75;;
75038;SDS011;63609;49.992;14.512;2023-08-01T14:23:26;3.80;;;1.70;;
75038;SDS011;63609;49.992;14.512;2023-08-01T14:25:54;3.03;;;1.58;;
75038;SDS011;63609;49.992;14.512;2023-08-01T14:28:22;2.33;;;1.25;;
75038;SDS011;63609;49.992;14.512;2023-08-01T14:30:49;2.08;;;1.08;;
75038;SDS011;63609;49.992;14.512;2023-08-01T14:33:16;2.55;;;1.30;;
75038;SDS011;63609;49.992;14.512;2023-08-01T14:35:43;1.92;;;1.00;;
75038;SDS011;63609;49.992;14.512;2023-08-01T14:38:12;4.82;;;1.30;;
75038;SDS011;63609;49.992;14.512;2023-08-01T14:40:41;3.83;;;1.38;;
75038;SDS011;63609;49.992;14.512;2023-08-01T14:43:19;3.63;;;1.50;;
75038;SDS011;63609;49.992;14.512;2023-08-01T14:45:47;2.30;;;1.10;;
75038;SDS011;63609;49.992;14.512;2023-08-01T14:48:16;2.25;;;1.02;;
75038;SDS011;63609;49.992;14.512;2023-08-01T14:50:43;2.10;;;1.15;;
75038;SDS011;63609;49.992;14.512;2023-08-01T14:53:11;2.17;;;1.25;;
75038;SDS011;63609;49.992;14.512;2023-08-01T14:55:39;3.53;;;1.60;;
75038;SDS011;63609;49.992;14.512;2023-08-01T14:58:08;2.63;;;1.20;;
75038;SDS011;63609;49.992;14.512;2023-08-01T15:00:35;2.85;;;1.30;;
75038;SDS011;63609;49.992;14.512;2023-08-01T15:03:03;3.72;;;1.80;;
75038;SDS011;63609;49.992;14.512;2023-08-01T15:05:31;4.10;;;1.48;;
75038;SDS011;63609;49.992;14.512;2023-08-01T15:07:58;2.97;;;1.42;;
75038;SDS011;63609;49.992;14.512;2023-08-01T15:10:27;3.10;;;1.85;;
75038;SDS011;63609;49.992;14.512;2023-08-01T15:12:54;2.90;;;1.38;;
75038;SDS011;63609;49.992;14.512;2023-08-01T15:15:22;2.20;;;1.20;;